Time;durP1;ratioP1;P1;durP2;ratioP2;P2;SDS_P1;SDS_P2;PMS_P1;PMS_P2;Temp;Humidity;BMP_temperature;BMP_pressure;BME280_temperature;BME280_humidity;BME280_pressure;Samples;Min_cycle;Max_cycle;Signal;HPM_P1;HPM_P2
2022/01/31 00:00:13;;;;;;;;;46.40;37.80;;;;;;;;5293869;27;8905;-81
2022/01/31 00:02:47;;;;;;;;;48.80;44.80;;;;;;;;5294182;27;8879;-79
2022/01/31 00:05:18;;;;;;;;;43.20;39.60;;;;;;;;5310971;27;8795;-79
2022/01/31 00:07:49;;;;;;;;;22.80;22.00;;;;;;;;5293707;27;8887;-78
2022/01/31 00:10:28;;;;;;;;;29.80;27.60;;;;;;;;5311765;27;8816;-79
2022/01/31 00:13:26;;;;;;;;;34.80;30.00;;;;;;;;5296427;27;8832;-81
2022/01/31 00:15:58;;;;;;;;;31.00;27.40;;;;;;;;5276955;27;8736;-81
2022/01/31 00:18:29;;;;;;;;;27.40;26.20;;;;;;;;5310588;27;8764;-79
2022/01/31 00:21:00;;;;;;;;;12.20;10.60;;;;;;;;5294349;27;8787;-80
2022/01/31 00:23:32;;;;;;;;;29.00;24.40;;;;;;;;5311719;27;8790;-80
2022/01/31 00:26:21;;;;;;;;;34.40;32.20;;;;;;;;5296174;27;8890;-79
2022/01/31 00:28:52;;;;;;;;;37.80;35.00;;;;;;;;5293632;27;8827;-79
2022/01/31 00:31:23;;;;;;;;;26.20;24.60;;;;;;;;5292240;27;8807;-80
2022/01/31 00:33:54;;;;;;;;;36.80;33.40;;;;;;;;5276193;27;8767;-79
2022/01/31 00:36:25;;;;;;;;;38.60;34.40;;;;;;;;5310352;27;8759;-79
2022/01/31 00:38:57;;;;;;;;;31.00;29.80;;;;;;;;5293165;27;8787;-80
2022/01/31 00:41:27;;;;;;;;;58.60;47.40;;;;;;;;5293297;27;8830;-80
2022/01/31 00:44:02;;;;;;;;;43.50;38.50;;;;;;;;5276248;27;8775;-80
2022/01/31 00:46:40;;;;;;;;;46.00;38.40;;;;;;;;5292995;27;8783;-80
2022/01/31 00:49:22;;;;;;;;;29.80;28.20;;;;;;;;5276482;27;8775;-79
2022/01/31 00:51:54;;;;;;;;;36.20;34.00;;;;;;;;5293159;27;8790;-78
2022/01/31 00:54:26;;;;;;;;;37.00;37.00;;;;;;;;5309885;27;8767;-79
2022/01/31 00:56:57;;;;;;;;;38.80;35.40;;;;;;;;5275458;27;8905;-77
2022/01/31 00:59:28;;;;;;;;;25.20;24.20;;;;;;;;5292496;27;8798;-78
2022/01/31 01:01:59;;;;;;;;;36.20;33.20;;;;;;;;5292752;27;8783;-78
2022/01/31 01:04:30;;;;;;;;;35.40;30.60;;;;;;;;5275802;27;9556;-78
2022/01/31 01:07:02;;;;;;;;;35.20;33.60;;;;;;;;5310464;27;8759;-78
2022/01/31 01:09:33;;;;;;;;;31.00;29.60;;;;;;;;5292328;27;8748;-77
2022/01/31 01:12:04;;;;;;;;;40.40;35.80;;;;;;;;5292601;27;8798;-78
2022/01/31 01:14:36;;;;;;;;;33.80;32.00;;;;;;;;5276195;27;8775;-78
2022/01/31 01:17:07;;;;;;;;;20.00;17.40;;;;;;;;5275515;27;8803;-77
2022/01/31 01:19:57;;;;;;;;;29.20;28.00;;;;;;;;5309945;27;8902;-77
2022/01/31 01:22:28;;;;;;;;;30.80;27.80;;;;;;;;5293808;27;8787;-77
2022/01/31 01:25:03;;;;;;;;;32.00;28.00;;;;;;;;5276053;27;8783;-77
2022/01/31 01:27:34;;;;;;;;;24.60;24.00;;;;;;;;5275213;27;8813;-77
2022/01/31 01:30:24;;;;;;;;;26.80;24.80;;;;;;;;5309151;27;8966;-77
2022/01/31 01:33:01;;;;;;;;;28.00;27.00;;;;;;;;5275216;27;8905;-77
2022/01/31 01:35:37;;;;;;;;;31.20;28.40;;;;;;;;5309733;27;8775;-76
2022/01/31 01:38:09;;;;;;;;;38.60;34.80;;;;;;;;5292411;27;8953;-79
2022/01/31 01:40:41;;;;;;;;;35.20;31.80;;;;;;;;5291965;27;8775;-79
2022/01/31 01:43:30;;;;;;;;;34.40;33.20;;;;;;;;5311356;27;9447;-80
2022/01/31 01:46:02;;;;;;;;;22.20;22.00;;;;;;;;5275161;27;8787;-80
2022/01/31 01:48:37;;;;;;;;;24.60;23.60;;;;;;;;5292469;27;8779;-80
2022/01/31 01:51:09;;;;;;;;;27.00;25.80;;;;;;;;5275051;27;9663;-79
2022/01/31 01:53:40;;;;;;;;;26.00;21.60;;;;;;;;5275082;27;9578;-80
2022/01/31 01:56:13;;;;;;;;;20.00;18.80;;;;;;;;5309572;27;8771;-79
2022/01/31 01:58:48;;;;;;;;;24.20;21.60;;;;;;;;5309429;27;8852;-76
2022/01/31 02:01:19;;;;;;;;;24.60;21.60;;;;;;;;5292114;27;8795;-76
2022/01/31 02:03:59;;;;;;;;;25.60;25.20;;;;;;;;5310026;27;9515;-75
2022/01/31 02:06:49;;;;;;;;;24.60;24.20;;;;;;;;5294299;27;8783;-76
2022/01/31 02:09:23;;;;;;;;;21.20;21.20;;;;;;;;5274831;27;8767;-76
2022/01/31 02:11:55;;;;;;;;;26.60;24.60;;;;;;;;5308725;27;8861;-79
2022/01/31 02:14:45;;;;;;;;;28.00;24.20;;;;;;;;5294663;27;8929;-80
2022/01/31 02:17:48;;;;;;;;;24.80;23.40;;;;;;;;5275334;27;8788;-78
2022/01/31 02:20:24;;;;;;;;;28.40;28.40;;;;;;;;5291647;27;8791;-79
2022/01/31 02:22:55;;;;;;;;;22.00;21.80;;;;;;;;5308672;27;9581;-77
2022/01/31 02:25:50;;;;;;;;;25.40;24.80;;;;;;;;5249551;28;8788;-79
2022/01/31 02:28:44;;;;;;;;;28.80;25.40;;;;;;;;5266228;28;8777;-78
2022/01/31 02:31:16;;;;;;;;;26.00;23.60;;;;;;;;5264646;28;8948;-77
2022/01/31 02:34:06;;;;;;;;;26.20;24.60;;;;;;;;5287167;28;8854;-78
2022/01/31 02:36:37;;;;;;;;;35.20;30.60;;;;;;;;5270228;28;8827;-78
2022/01/31 02:39:09;;;;;;;;;17.60;16.20;;;;;;;;5269927;28;8824;-78
2022/01/31 02:41:45;;;;;;;;;27.60;22.20;;;;;;;;5253867;28;9456;-78
2022/01/31 02:44:38;;;;;;;;;24.40;23.60;;;;;;;;5288291;28;8767;-77
2022/01/31 02:47:24;;;;;;;;;25.60;22.60;;;;;;;;5270374;28;8770;-78
2022/01/31 02:50:00;;;;;;;;;34.00;30.40;;;;;;;;5269868;28;8840;-78
2022/01/31 02:52:59;;;;;;;;;27.20;25.40;;;;;;;;5289108;28;8788;-77
2022/01/31 02:55:31;;;;;;;;;24.20;19.00;;;;;;;;5279970;28;8802;-76
2022/01/31 02:58:03;;;;;;;;;31.40;28.00;;;;;;;;5273785;28;8774;-77
2022/01/31 03:00:53;;;;;;;;;31.40;29.60;;;;;;;;5276820;28;9632;-77
2022/01/31 03:03:34;;;;;;;;;29.00;27.20;;;;;;;;5291805;28;8834;-77
2022/01/31 03:06:05;;;;;;;;;27.80;25.80;;;;;;;;5274235;28;9477;-76
2022/01/31 03:08:36;;;;;;;;;23.40;22.80;;;;;;;;5273703;28;8766;-77
2022/01/31 03:11:22;;;;;;;;;33.80;31.40;;;;;;;;5281738;28;8808;-77
2022/01/31 03:14:01;;;;;;;;;37.40;35.80;;;;;;;;5252571;27;8772;-75
2022/01/31 03:16:39;;;;;;;;;23.80;23.80;;;;;;;;5292652;27;8832;-75
2022/01/31 03:19:22;;;;;;;;;38.00;31.60;;;;;;;;5284869;27;8791;-74
2022/01/31 03:21:59;;;;;;;;;26.00;26.00;;;;;;;;5269932;28;8812;-75
2022/01/31 03:24:30;;;;;;;;;28.00;22.60;;;;;;;;5251295;28;8796;-76
2022/01/31 03:27:01;;;;;;;;;31.25;29.00;;;;;;;;5279445;27;8842;-76
2022/01/31 03:29:32;;;;;;;;;31.20;29.40;;;;;;;;5311229;27;9520;-76
2022/01/31 03:32:03;;;;;;;;;31.00;31.00;;;;;;;;5294172;27;8747;-75
2022/01/31 03:34:34;;;;;;;;;30.40;26.60;;;;;;;;5311506;27;8771;-76
2022/01/31 03:37:05;;;;;;;;;32.25;31.00;;;;;;;;5311140;27;8763;-76
2022/01/31 03:39:37;;;;;;;;;36.40;35.60;;;;;;;;5310872;27;11474;-75
2022/01/31 03:42:08;;;;;;;;;26.75;26.50;;;;;;;;5293742;27;8803;-75
2022/01/31 03:44:42;;;;;;;;;30.50;25.50;;;;;;;;5276932;27;10488;-76
2022/01/31 03:47:14;;;;;;;;;26.20;25.40;;;;;;;;5310899;27;11444;-76
2022/01/31 03:49:45;;;;;;;;;33.20;33.00;;;;;;;;5293421;27;8795;-75
2022/01/31 03:52:20;;;;;;;;;27.00;25.80;;;;;;;;5293639;27;8787;-76
2022/01/31 03:54:56;;;;;;;;;20.00;20.00;;;;;;;;5294258;27;8759;-76
2022/01/31 03:57:28;;;;;;;;;25.60;22.60;;;;;;;;5293692;27;8840;-77
2022/01/31 04:00:12;;;;;;;;;25.40;24.60;;;;;;;;5295601;27;8795;-77
2022/01/31 04:02:47;;;;;;;;;27.00;25.60;;;;;;;;5310356;27;8817;-74
2022/01/31 04:05:18;;;;;;;;;23.75;21.75;;;;;;;;5309225;27;8771;-75
2022/01/31 04:07:49;;;;;;;;;25.00;24.00;;;;;;;;5310963;27;8794;-76
2022/01/31 04:10:20;;;;;;;;;25.75;25.75;;;;;;;;5310099;27;9520;-76
2022/01/31 04:12:50;;;;;;;;;6.00;6.00;;;;;;;;5311236;27;8836;-75
2022/01/31 04:15:21;;;;;;;;;24.50;24.50;;;;;;;;5314734;27;9462;-75
2022/01/31 04:17:52;;;;;;;;;25.25;23.25;;;;;;;;5314828;27;10775;-75
2022/01/31 04:20:23;;;;;;;;;18.00;15.50;;;;;;;;5311967;27;8752;-76
2022/01/31 04:28:22;;;;;;;;;23.75;22.75;;;;;;;;5310951;27;9628;-75
2022/01/31 04:34:09;;;;;;;;;27.20;25.00;;;;;;;;5310772;27;8799;-75
2022/01/31 04:36:40;;;;;;;;;36.80;36.00;;;;;;;;5310820;27;8771;-76
2022/01/31 04:39:31;;;;;;;;;33.00;32.20;;;;;;;;5310061;27;8755;-76
2022/01/31 04:42:21;;;;;;;;;27.20;23.00;;;;;;;;5295320;27;8763;-75
2022/01/31 04:44:54;;;;;;;;;14.00;14.00;;;;;;;;5292640;27;8797;-76
2022/01/31 04:47:24;;;;;;;;;24.60;23.60;;;;;;;;5309260;27;8791;-76
2022/01/31 04:49:55;;;;;;;;;20.50;20.00;;;;;;;;5309190;27;8952;-76
2022/01/31 04:52:26;;;;;;;;;25.00;22.00;;;;;;;;5292522;27;8769;-76
2022/01/31 04:54:57;;;;;;;;;33.50;33.50;;;;;;;;5292400;27;9442;-75
2022/01/31 04:57:28;;;;;;;;;30.25;28.50;;;;;;;;5309219;27;9454;-76
2022/01/31 04:59:58;;;;;;;;;33.50;30.00;;;;;;;;5310272;27;9633;-76
2022/01/31 05:02:29;;;;;;;;;42.25;41.50;;;;;;;;5310512;27;8764;-77
2022/01/31 05:05:18;;;;;;;;;41.00;39.20;;;;;;;;5294772;27;8787;-76
2022/01/31 05:07:51;;;;;;;;;42.50;36.75;;;;;;;;5309747;27;8783;-77
2022/01/31 05:10:49;;;;;;;;;50.20;42.00;;;;;;;;5309419;27;8830;-77
2022/01/31 05:13:20;;;;;;;;;38.80;37.00;;;;;;;;5292221;27;8756;-77
2022/01/31 05:15:53;;;;;;;;;32.50;29.75;;;;;;;;5308764;27;8859;-75
2022/01/31 05:18:24;;;;;;;;;44.80;41.40;;;;;;;;5309292;27;9473;-76
2022/01/31 05:20:55;;;;;;;;;33.75;30.50;;;;;;;;5292110;27;8864;-76
2022/01/31 05:23:26;;;;;;;;;56.33;49.00;;;;;;;;5292117;27;9497;-76
2022/01/31 05:25:57;;;;;;;;;57.80;49.20;;;;;;;;5309045;27;8847;-76
2022/01/31 05:28:28;;;;;;;;;60.00;45.40;;;;;;;;5309010;27;9463;-76
2022/01/31 05:30:59;;;;;;;;;46.50;42.50;;;;;;;;5310334;27;8827;-76
2022/01/31 05:33:29;;;;;;;;;53.00;40.00;;;;;;;;5308935;27;8930;-76
2022/01/31 05:36:00;;;;;;;;;32.25;31.50;;;;;;;;5308779;27;8755;-77
2022/01/31 05:38:35;;;;;;;;;24.25;23.25;;;;;;;;5308518;27;8771;-75
2022/01/31 05:41:08;;;;;;;;;16.60;15.80;;;;;;;;5309991;27;8786;-74
2022/01/31 05:43:39;;;;;;;;;26.80;26.80;;;;;;;;5309734;27;8806;-76
2022/01/31 05:46:10;;;;;;;;;24.50;22.50;;;;;;;;5308602;27;8792;-77
2022/01/31 05:48:40;;;;;;;;;33.25;31.75;;;;;;;;5291820;27;8761;-77
2022/01/31 05:51:15;;;;;;;;;30.75;27.75;;;;;;;;5291424;27;9582;-76
2022/01/31 05:53:47;;;;;;;;;27.80;27.80;;;;;;;;5291866;27;9520;-75
2022/01/31 05:56:18;;;;;;;;;21.40;20.80;;;;;;;;5308614;27;8768;-75
2022/01/31 05:58:50;;;;;;;;;30.60;27.20;;;;;;;;5308418;27;8817;-77
2022/01/31 06:01:20;;;;;;;;;30.80;30.20;;;;;;;;5291110;27;8905;-77
2022/01/31 06:03:51;;;;;;;;;23.50;21.00;;;;;;;;5308403;27;9657;-77
2022/01/31 06:06:22;;;;;;;;;10.50;10.25;;;;;;;;5309025;27;8764;-77
2022/01/31 06:09:11;;;;;;;;;30.60;22.40;;;;;;;;5309625;27;8832;-75
2022/01/31 06:11:44;;;;;;;;;21.50;21.25;;;;;;;;5291024;27;8819;-77
2022/01/31 06:14:16;;;;;;;;;29.20;27.00;;;;;;;;5291127;27;8763;-76
2022/01/31 06:16:47;;;;;;;;;21.40;20.20;;;;;;;;5273918;27;8786;-76
2022/01/31 06:19:18;;;;;;;;;19.00;16.80;;;;;;;;5290858;27;8775;-77
2022/01/31 06:22:07;;;;;;;;;8.20;7.80;;;;;;;;5309351;27;8763;-76
2022/01/31 06:24:40;;;;;;;;;24.80;23.80;;;;;;;;5308231;27;8894;-76
2022/01/31 06:27:18;;;;;;;;;20.60;18.60;;;;;;;;5292242;27;9455;-77
2022/01/31 06:29:49;;;;;;;;;24.40;23.40;;;;;;;;5277533;27;8798;-77
2022/01/31 06:32:30;;;;;;;;;20.40;20.00;;;;;;;;5312507;27;8776;-76
2022/01/31 06:35:00;;;;;;;;;9.25;8.00;;;;;;;;5312136;27;8783;-76
2022/01/31 06:37:31;;;;;;;;;14.25;13.00;;;;;;;;5295400;27;8760;-77
2022/01/31 06:40:03;;;;;;;;;20.75;20.00;;;;;;;;5312019;27;8795;-77
2022/01/31 06:42:34;;;;;;;;;20.80;20.20;;;;;;;;5312205;27;8791;-77
2022/01/31 06:45:06;;;;;;;;;21.00;19.80;;;;;;;;5278480;27;8759;-76
2022/01/31 06:47:38;;;;;;;;;19.80;19.40;;;;;;;;5277938;27;8775;-76
2022/01/31 06:50:09;;;;;;;;;23.60;20.60;;;;;;;;5313505;27;9520;-75
2022/01/31 06:52:41;;;;;;;;;11.20;10.40;;;;;;;;5295123;27;9497;-77
2022/01/31 06:55:19;;;;;;;;;16.20;16.20;;;;;;;;5312161;27;8820;-75
2022/01/31 06:57:51;;;;;;;;;69.00;52.00;;;;;;;;5312909;27;8748;-76
2022/01/31 07:00:22;;;;;;;;;49.40;46.00;;;;;;;;5295208;27;8895;-77
2022/01/31 07:02:56;;;;;;;;;20.00;19.60;;;;;;;;5277517;27;8902;-78
2022/01/31 07:05:27;;;;;;;;;44.00;40.00;;;;;;;;5312955;27;8767;-78
2022/01/31 07:08:16;;;;;;;;;30.60;28.40;;;;;;;;5311565;27;8772;-77
2022/01/31 07:10:52;;;;;;;;;27.40;27.40;;;;;;;;5294540;27;8861;-77
2022/01/31 07:13:37;;;;;;;;;25.60;24.40;;;;;;;;5294760;27;8779;-77
2022/01/31 07:16:09;;;;;;;;;32.60;32.00;;;;;;;;5294381;27;8787;-77
2022/01/31 07:18:40;;;;;;;;;38.80;33.80;;;;;;;;5277498;27;8815;-76
2022/01/31 07:21:14;;;;;;;;;44.20;38.60;;;;;;;;5277314;27;8839;-76
2022/01/31 07:24:04;;;;;;;;;38.20;33.60;;;;;;;;5294068;27;8799;-78
2022/01/31 07:26:35;;;;;;;;;27.00;24.40;;;;;;;;5294263;27;8793;-77
2022/01/31 07:29:06;;;;;;;;;28.20;21.00;;;;;;;;5311318;27;8775;-77
2022/01/31 07:31:40;;;;;;;;;27.60;24.20;;;;;;;;5311310;27;8823;-76
2022/01/31 07:34:12;;;;;;;;;39.20;36.00;;;;;;;;5310994;27;8779;-76
2022/01/31 07:36:43;;;;;;;;;35.60;33.60;;;;;;;;5311194;27;8805;-76
2022/01/31 07:39:33;;;;;;;;;31.60;30.80;;;;;;;;5310666;27;8772;-76
2022/01/31 07:42:04;;;;;;;;;31.00;30.00;;;;;;;;5294354;27;9007;-76
2022/01/31 07:44:42;;;;;;;;;41.80;38.00;;;;;;;;5294280;27;8798;-78
2022/01/31 07:47:13;;;;;;;;;34.50;30.00;;;;;;;;5293786;27;9466;-77
2022/01/31 07:49:44;;;;;;;;;28.75;25.25;;;;;;;;5310448;27;11453;-75
2022/01/31 07:52:15;;;;;;;;;33.80;30.60;;;;;;;;5310876;27;9161;-76
2022/01/31 07:54:46;;;;;;;;;26.60;24.00;;;;;;;;5276695;27;8767;-77
2022/01/31 07:57:18;;;;;;;;;6.60;6.60;;;;;;;;5293801;27;8775;-76
2022/01/31 07:59:53;;;;;;;;;23.20;23.20;;;;;;;;5294202;27;8810;-77
2022/01/31 08:02:24;;;;;;;;;25.20;24.40;;;;;;;;5311625;27;8779;-78
2022/01/31 08:05:02;;;;;;;;;44.50;43.00;;;;;;;;5311847;27;8860;-78
2022/01/31 08:07:34;;;;;;;;;38.20;36.00;;;;;;;;5310918;27;8774;-76
2022/01/31 08:10:06;;;;;;;;;23.60;22.80;;;;;;;;5276390;27;8811;-76
2022/01/31 08:12:37;;;;;;;;;19.20;17.80;;;;;;;;5310551;27;8803;-77
2022/01/31 08:15:14;;;;;;;;;41.40;35.40;;;;;;;;5310205;27;8807;-76
2022/01/31 08:17:45;;;;;;;;;34.40;30.40;;;;;;;;5310472;27;8775;-77
2022/01/31 08:20:16;;;;;;;;;27.40;25.20;;;;;;;;5293099;27;8771;-77
2022/01/31 08:22:50;;;;;;;;;16.80;16.80;;;;;;;;5311413;27;8793;-76
2022/01/31 08:25:21;;;;;;;;;21.25;21.25;;;;;;;;5310081;27;8787;-76
2022/01/31 08:28:12;;;;;;;;;21.60;21.40;;;;;;;;5310178;27;11982;-76
2022/01/31 08:33:43;;;;;;;;;124.50;93.00;;;;;;;;5309944;27;9525;-76
2022/01/31 08:36:20;;;;;;;;;157.25;119.00;;;;;;;;5293484;27;8798;-77
2022/01/31 08:38:51;;;;;;;;;31.40;24.20;;;;;;;;5310192;27;10000;-76
2022/01/31 08:41:23;;;;;;;;;25.60;24.40;;;;;;;;5292340;27;8877;-76
2022/01/31 08:43:54;;;;;;;;;26.20;24.60;;;;;;;;5292560;27;8824;-75
2022/01/31 08:46:25;;;;;;;;;35.40;34.60;;;;;;;;5293622;27;8795;-76
2022/01/31 08:48:58;;;;;;;;;30.75;28.50;;;;;;;;5310541;27;8798;-76
2022/01/31 08:51:31;;;;;;;;;31.60;29.00;;;;;;;;5294429;27;8803;-75
2022/01/31 08:54:06;;;;;;;;;10.80;9.80;;;;;;;;5293367;27;9482;-75
2022/01/31 08:56:40;;;;;;;;;33.40;32.80;;;;;;;;5292342;27;8775;-77
2022/01/31 08:59:29;;;;;;;;;17.60;17.00;;;;;;;;5309830;27;8811;-74
2022/01/31 09:02:29;;;;;;;;;30.80;29.40;;;;;;;;5309195;27;8841;-75
2022/01/31 09:05:00;;;;;;;;;98.25;73.75;;;;;;;;5292041;27;8810;-74
2022/01/31 09:07:31;;;;;;;;;30.25;25.50;;;;;;;;5309413;27;8783;-75
2022/01/31 09:10:03;;;;;;;;;37.00;34.00;;;;;;;;5310002;27;9774;-75
2022/01/31 09:12:35;;;;;;;;;32.20;31.20;;;;;;;;5309212;27;8779;-75
2022/01/31 09:15:07;;;;;;;;;24.00;22.00;;;;;;;;5292042;27;9594;-75
2022/01/31 09:17:38;;;;;;;;;33.00;30.00;;;;;;;;5310116;27;8864;-76
2022/01/31 09:20:09;;;;;;;;;56.20;51.40;;;;;;;;5308942;27;8815;-76
2022/01/31 09:22:42;;;;;;;;;46.60;39.00;;;;;;;;5275049;27;8775;-77
2022/01/31 09:25:14;;;;;;;;;31.60;26.60;;;;;;;;5308905;27;8775;-77
2022/01/31 09:27:45;;;;;;;;;25.40;23.00;;;;;;;;5308831;27;9621;-74
2022/01/31 09:30:18;;;;;;;;;25.50;24.50;;;;;;;;5291654;27;8831;-75
2022/01/31 09:32:49;;;;;;;;;20.20;18.40;;;;;;;;5309857;27;8795;-75
2022/01/31 09:35:20;;;;;;;;;28.75;27.75;;;;;;;;5292115;27;8954;-76
2022/01/31 09:37:52;;;;;;;;;34.00;27.20;;;;;;;;5291366;27;11058;-77
2022/01/31 09:40:23;;;;;;;;;24.20;23.60;;;;;;;;5291668;27;8783;-76
2022/01/31 09:43:02;;;;;;;;;24.00;23.20;;;;;;;;5291784;27;8813;-76
2022/01/31 09:45:50;;;;;;;;;37.40;31.40;;;;;;;;5309894;27;9706;-76
2022/01/31 09:48:38;;;;;;;;;35.20;34.00;;;;;;;;5308550;27;8799;-76
2022/01/31 09:51:11;;;;;;;;;21.00;19.80;;;;;;;;5274565;27;8869;-76
2022/01/31 09:53:43;;;;;;;;;31.20;29.60;;;;;;;;5308438;27;8779;-77
2022/01/31 09:56:19;;;;;;;;;56.00;47.80;;;;;;;;5308380;27;8783;-76
2022/01/31 09:58:51;;;;;;;;;50.40;44.00;;;;;;;;5309712;27;8814;-76
2022/01/31 10:01:47;;;;;;;;;36.80;34.20;;;;;;;;5309939;27;8806;-75
2022/01/31 10:04:20;;;;;;;;;30.00;28.40;;;;;;;;5308518;27;8786;-74
2022/01/31 10:06:55;;;;;;;;;27.00;27.00;;;;;;;;5308539;27;8836;-75
2022/01/31 10:09:33;;;;;;;;;27.00;27.00;;;;;;;;5291075;27;8788;-78
2022/01/31 10:18:03;;;;;;;;;37.60;36.40;;;;;;;;5309422;27;8779;-75
2022/01/31 10:20:35;;;;;;;;;27.50;27.50;;;;;;;;5291123;27;8798;-76
2022/01/31 10:23:07;;;;;;;;;37.00;35.00;;;;;;;;5290917;27;11440;-76
2022/01/31 10:25:38;;;;;;;;;37.40;34.40;;;;;;;;5291019;27;8764;-76
2022/01/31 10:28:11;;;;;;;;;37.25;35.00;;;;;;;;5290996;27;8792;-75
2022/01/31 10:30:43;;;;;;;;;43.40;39.60;;;;;;;;5307537;27;11633;-77
2022/01/31 10:33:15;;;;;;;;;43.40;40.40;;;;;;;;5309672;27;8759;-77
2022/01/31 10:36:18;;;;;;;;;52.00;48.40;;;;;;;;5293888;27;8760;-76
2022/01/31 10:39:06;;;;;;;;;40.60;37.20;;;;;;;;5309193;27;8780;-76
2022/01/31 10:53:58;;;;;;;;;37.40;35.60;;;;;;;;5309414;27;8859;-76
2022/01/31 10:56:39;;;;;;;;;86.00;66.80;;;;;;;;5290973;27;8764;-77
2022/01/31 10:59:10;;;;;;;;;57.40;46.80;;;;;;;;5290827;27;8792;-76
2022/01/31 11:01:42;;;;;;;;;52.25;45.50;;;;;;;;5307521;27;8871;-76
2022/01/31 11:04:15;;;;;;;;;46.20;40.20;;;;;;;;5291196;27;8828;-76
2022/01/31 11:06:47;;;;;;;;;61.80;52.80;;;;;;;;5307739;27;8759;-75
2022/01/31 11:09:37;;;;;;;;;76.20;62.20;;;;;;;;5307921;27;8914;-75
2022/01/31 11:12:09;;;;;;;;;71.60;58.40;;;;;;;;5307420;27;8850;-75
2022/01/31 11:14:41;;;;;;;;;87.80;64.40;;;;;;;;5310142;27;8814;-75
2022/01/31 11:17:13;;;;;;;;;80.20;63.40;;;;;;;;5312934;27;8767;-75
2022/01/31 11:19:47;;;;;;;;;78.40;62.60;;;;;;;;5312634;27;8864;-76
2022/01/31 11:22:27;;;;;;;;;66.60;55.40;;;;;;;;5294288;27;8794;-76
2022/01/31 11:25:05;;;;;;;;;73.40;60.40;;;;;;;;5277951;27;8855;-76
2022/01/31 11:27:37;;;;;;;;;78.60;63.40;;;;;;;;5311846;27;8791;-75
2022/01/31 11:30:08;;;;;;;;;44.60;41.60;;;;;;;;5294415;27;8854;-76
2022/01/31 11:32:41;;;;;;;;;82.20;65.60;;;;;;;;5294135;27;8795;-75
2022/01/31 11:35:12;;;;;;;;;67.00;54.60;;;;;;;;5312304;27;8791;-75
2022/01/31 11:37:43;;;;;;;;;75.00;61.25;;;;;;;;5293708;27;8802;-76
2022/01/31 11:40:15;;;;;;;;;92.33;69.33;;;;;;;;5277099;27;11527;-76
2022/01/31 11:42:47;;;;;;;;;95.75;70.00;;;;;;;;5293884;27;8791;-75
2022/01/31 11:45:20;;;;;;;;;93.75;71.50;;;;;;;;5312666;27;8795;-76
2022/01/31 11:47:52;;;;;;;;;103.00;75.25;;;;;;;;5311403;27;8783;-76
2022/01/31 11:50:24;;;;;;;;;63.00;51.60;;;;;;;;5311482;27;8841;-76
2022/01/31 11:53:00;;;;;;;;;70.00;58.20;;;;;;;;5293945;27;8791;-76
2022/01/31 11:55:35;;;;;;;;;58.60;51.40;;;;;;;;5294315;27;8843;-76
2022/01/31 11:58:07;;;;;;;;;59.20;48.80;;;;;;;;5277573;27;9434;-75
2022/01/31 12:00:39;;;;;;;;;40.20;35.60;;;;;;;;5294846;27;9497;-76
2022/01/31 12:03:14;;;;;;;;;32.20;29.40;;;;;;;;5311465;27;8803;-77
2022/01/31 12:05:45;;;;;;;;;56.80;49.00;;;;;;;;5312675;27;8785;-75
2022/01/31 12:08:19;;;;;;;;;41.60;40.60;;;;;;;;5293968;27;8806;-77
2022/01/31 12:10:53;;;;;;;;;30.00;28.60;;;;;;;;5311446;27;8969;-76
2022/01/31 12:13:32;;;;;;;;;31.60;28.80;;;;;;;;5311889;27;8898;-76
2022/01/31 12:16:21;;;;;;;;;48.00;41.80;;;;;;;;5293557;27;8763;-75
2022/01/31 12:19:02;;;;;;;;;41.80;35.60;;;;;;;;5293276;27;8917;-75
2022/01/31 12:22:00;;;;;;;;;46.80;45.00;;;;;;;;5295944;27;8798;-75
2022/01/31 12:24:32;;;;;;;;;33.80;30.20;;;;;;;;5310574;27;8767;-76
2022/01/31 12:27:03;;;;;;;;;36.20;35.80;;;;;;;;5310082;27;8783;-75
2022/01/31 12:29:36;;;;;;;;;33.20;32.00;;;;;;;;5276002;27;8771;-75
2022/01/31 12:32:11;;;;;;;;;30.60;30.00;;;;;;;;5311008;27;8823;-75
2022/01/31 12:34:46;;;;;;;;;29.00;27.00;;;;;;;;5275884;27;8779;-75
2022/01/31 12:37:18;;;;;;;;;25.00;24.60;;;;;;;;5311013;27;8779;-75
2022/01/31 12:40:00;;;;;;;;;28.00;25.80;;;;;;;;5293000;27;8779;-76
2022/01/31 12:45:42;;;;;;;;;30.40;29.40;;;;;;;;5310885;27;8784;-76
2022/01/31 12:48:15;;;;;;;;;37.60;32.60;;;;;;;;5292502;27;8763;-76
2022/01/31 12:50:49;;;;;;;;;33.20;31.40;;;;;;;;5308917;27;8807;-77
2022/01/31 12:53:46;;;;;;;;;38.80;36.80;;;;;;;;5292855;27;8768;-75
2022/01/31 12:56:32;;;;;;;;;49.20;44.40;;;;;;;;5310837;27;8902;-75
2022/01/31 12:59:08;;;;;;;;;38.50;38.00;;;;;;;;5275375;27;8909;-75
2022/01/31 13:01:44;;;;;;;;;33.00;31.80;;;;;;;;5309509;27;8779;-74
2022/01/31 13:04:17;;;;;;;;;33.20;32.00;;;;;;;;5286032;28;8809;-76
2022/01/31 13:06:49;;;;;;;;;34.40;34.40;;;;;;;;5287907;28;8805;-73
2022/01/31 13:09:20;;;;;;;;;31.20;31.20;;;;;;;;5289735;28;8850;-75
2022/01/31 13:11:56;;;;;;;;;39.80;38.40;;;;;;;;5271428;28;8840;-74
2022/01/31 13:14:29;;;;;;;;;32.20;32.20;;;;;;;;5272859;28;8785;-76
2022/01/31 13:17:26;;;;;;;;;38.20;37.40;;;;;;;;5292975;27;9505;-77
2022/01/31 13:20:15;;;;;;;;;35.20;34.80;;;;;;;;5285571;27;8791;-76
2022/01/31 13:22:46;;;;;;;;;46.60;41.80;;;;;;;;5233325;28;8910;-78
2022/01/31 13:25:17;;;;;;;;;36.25;33.25;;;;;;;;5232626;28;8930;-79
2022/01/31 13:27:49;;;;;;;;;36.00;32.40;;;;;;;;5232494;28;10607;-77
2022/01/31 13:30:28;;;;;;;;;29.60;29.60;;;;;;;;5233109;28;8818;-78
2022/01/31 13:33:04;;;;;;;;;29.40;28.60;;;;;;;;5275306;27;8794;-78
2022/01/31 13:35:37;;;;;;;;;33.80;33.20;;;;;;;;5292331;27;9482;-77
2022/01/31 13:38:10;;;;;;;;;52.20;43.40;;;;;;;;5291755;27;8779;-71
2022/01/31 13:41:00;;;;;;;;;45.80;45.00;;;;;;;;5308852;27;8891;-77
2022/01/31 13:43:50;;;;;;;;;40.00;36.40;;;;;;;;5294227;27;9522;-79
2022/01/31 13:46:28;;;;;;;;;41.00;38.00;;;;;;;;5310247;27;8835;-79
2022/01/31 13:49:29;;;;;;;;;36.00;33.20;;;;;;;;5296668;27;8763;-81
2022/01/31 13:52:00;;;;;;;;;33.00;31.80;;;;;;;;5310783;27;8871;-80
2022/01/31 13:54:49;;;;;;;;;34.00;32.60;;;;;;;;5294076;27;8791;-79
2022/01/31 13:57:20;;;;;;;;;39.40;37.80;;;;;;;;5290920;27;9557;-80
2022/01/31 13:59:55;;;;;;;;;33.60;33.20;;;;;;;;5309850;27;8783;-79
2022/01/31 14:03:03;;;;;;;;;32.60;27.80;;;;;;;;5288364;27;8799;-79
2022/01/31 14:05:35;;;;;;;;;29.00;27.60;;;;;;;;5309281;27;8795;-78
2022/01/31 14:08:08;;;;;;;;;9.60;8.20;;;;;;;;5273599;27;8759;-79
2022/01/31 14:10:41;;;;;;;;;34.00;33.60;;;;;;;;5290785;27;9624;-79
2022/01/31 14:13:14;;;;;;;;;32.80;29.80;;;;;;;;5290183;27;8795;-78
2022/01/31 14:15:47;;;;;;;;;9.20;7.00;;;;;;;;5274426;27;9532;-77
2022/01/31 14:18:19;;;;;;;;;21.20;21.00;;;;;;;;5256690;27;8763;-82
2022/01/31 14:20:51;;;;;;;;;35.20;32.80;;;;;;;;5273711;27;8796;-75
2022/01/31 14:23:23;;;;;;;;;36.00;33.60;;;;;;;;5291281;27;8778;-77
2022/01/31 14:25:56;;;;;;;;;24.60;23.00;;;;;;;;5275013;27;8774;-79
2022/01/31 14:28:46;;;;;;;;;35.40;31.60;;;;;;;;5292462;27;8778;-75
2022/01/31 14:31:34;;;;;;;;;31.20;28.00;;;;;;;;5275823;28;8975;-77
2022/01/31 14:34:09;;;;;;;;;23.80;21.40;;;;;;;;5236855;28;8921;-76
2022/01/31 14:36:44;;;;;;;;;26.60;25.60;;;;;;;;5270069;28;8898;-75
2022/01/31 14:39:33;;;;;;;;;36.40;33.80;;;;;;;;5269462;28;8784;-76
2022/01/31 14:47:53;;;;;;;;;37.20;36.20;;;;;;;;5270255;28;8838;-77
2022/01/31 14:50:38;;;;;;;;;56.20;49.80;;;;;;;;5228458;28;8864;-75
2022/01/31 14:53:28;;;;;;;;;54.00;48.80;;;;;;;;5259256;28;9553;-78
2022/01/31 14:55:59;;;;;;;;;70.00;55.75;;;;;;;;5256535;28;8796;-77
2022/01/31 14:58:30;;;;;;;;;70.25;55.75;;;;;;;;5274002;28;8788;-76
2022/01/31 15:01:06;;;;;;;;;38.00;38.00;;;;;;;;5239575;28;11618;-77
2022/01/31 15:03:38;;;;;;;;;59.20;48.80;;;;;;;;5239548;28;8772;-77
2022/01/31 15:06:09;;;;;;;;;44.00;36.80;;;;;;;;5240313;28;8796;-77
2022/01/31 15:08:40;;;;;;;;;29.20;29.20;;;;;;;;5273672;28;8808;-76
2022/01/31 15:11:18;;;;;;;;;28.50;25.50;;;;;;;;5256556;28;8835;-78
2022/01/31 15:13:51;;;;;;;;;43.00;39.80;;;;;;;;5273693;28;8788;-77
2022/01/31 15:16:31;;;;;;;;;33.20;30.20;;;;;;;;5259566;28;8791;-76
2022/01/31 15:19:03;;;;;;;;;38.80;34.60;;;;;;;;5291933;28;8787;-79
2022/01/31 15:21:38;;;;;;;;;26.80;25.60;;;;;;;;5258835;28;8921;-78
2022/01/31 15:24:09;;;;;;;;;34.60;30.60;;;;;;;;5291004;28;8771;-77
2022/01/31 15:26:46;;;;;;;;;77.20;62.20;;;;;;;;5257123;28;8913;-80
2022/01/31 15:29:16;;;;;;;;;36.60;36.00;;;;;;;;5256760;28;8779;-77
2022/01/31 15:31:48;;;;;;;;;33.40;32.40;;;;;;;;5256619;28;8807;-79
2022/01/31 15:34:19;;;;;;;;;39.40;34.80;;;;;;;;5239190;28;8787;-80
2022/01/31 15:36:50;;;;;;;;;32.80;31.40;;;;;;;;5255786;28;8809;-78
2022/01/31 15:39:21;;;;;;;;;36.00;33.80;;;;;;;;5239256;28;9584;-78
2022/01/31 15:41:57;;;;;;;;;50.00;46.20;;;;;;;;5256211;28;8806;-76
2022/01/31 15:44:37;;;;;;;;;29.20;27.40;;;;;;;;5256669;28;8767;-74
2022/01/31 15:47:08;;;;;;;;;18.20;16.40;;;;;;;;5255795;28;8786;-78
2022/01/31 15:49:39;;;;;;;;;27.80;27.80;;;;;;;;5231559;28;8771;-78
2022/01/31 15:52:11;;;;;;;;;48.75;44.50;;;;;;;;5291100;28;8828;-77
2022/01/31 15:54:42;;;;;;;;;36.00;33.40;;;;;;;;5270025;27;11451;-77
2022/01/31 15:57:14;;;;;;;;;34.00;28.00;;;;;;;;5293625;27;9541;-80